Time;durP1;ratioP1;P1;durP2;ratioP2;P2;SDS_P1;SDS_P2;PMS_P1;PMS_P2;Temp;Humidity;BMP_temperature;BMP_pressure;BME280_temperature;BME280_humidity;BME280_pressure;Samples;Min_cycle;Max_cycle;Signal;HPM_P1;HPM_P2
2023/05/17 00:02:25;;;;;;;3.95;1.92;;;;;;;;;;6041615;23;20320;-62
2023/05/17 00:04:53;;;;;;;2.85;1.80;;;;;;;;;;6042641;23;20290;-64
2023/05/17 00:07:21;;;;;;;5.05;2.90;;;;;;;;;;6043079;23;20251;-64
2023/05/17 00:09:49;;;;;;;9.23;6.30;;;;;;;;;;6042262;23;20329;-62
2023/05/17 00:12:17;;;;;;;4.70;3.10;;;;;;;;;;6043129;23;20614;-63
2023/05/17 00:14:46;;;;;;;9.13;2.22;;;;;;;;;;6043001;23;20264;-64
2023/05/17 00:17:14;;;;;;;2.90;2.15;;;;;;;;;;6042977;23;20212;-63
2023/05/17 00:19:44;;;;;;;5.10;3.10;;;;;;;;;;6044397;23;20525;-63
2023/05/17 00:22:12;;;;;;;4.38;2.65;;;;;;;;;;6042262;23;20247;-64
2023/05/17 00:24:40;;;;;;;4.22;2.95;;;;;;;;;;6044241;23;20212;-63
2023/05/17 00:27:09;;;;;;;8.05;2.35;;;;;;;;;;6043258;23;20208;-63
2023/05/17 00:29:37;;;;;;;2.60;2.40;;;;;;;;;;6043994;23;20701;-62
2023/05/17 00:32:05;;;;;;;6.30;2.45;;;;;;;;;;6043319;23;20212;-63
2023/05/17 00:34:34;;;;;;;4.95;2.45;;;;;;;;;;6043270;23;20204;-62
2023/05/17 00:37:03;;;;;;;5.72;2.80;;;;;;;;;;6043533;23;20220;-63
2023/05/17 00:39:31;;;;;;;3.92;2.75;;;;;;;;;;6044414;23;20244;-64
2023/05/17 00:42:01;;;;;;;4.88;2.20;;;;;;;;;;6043504;23;20207;-63
2023/05/17 00:44:29;;;;;;;3.95;2.85;;;;;;;;;;6042584;23;20540;-63
2023/05/17 00:46:58;;;;;;;3.50;2.38;;;;;;;;;;6044067;23;20220;-62
2023/05/17 00:49:27;;;;;;;3.40;2.40;;;;;;;;;;6043120;23;20215;-62
2023/05/17 00:51:55;;;;;;;2.28;1.88;;;;;;;;;;6044166;23;20212;-62
2023/05/17 00:54:26;;;;;;;5.03;2.92;;;;;;;;;;6044485;23;20212;-62
2023/05/17 00:56:56;;;;;;;7.82;2.75;;;;;;;;;;6042727;23;20244;-63
2023/05/17 00:59:25;;;;;;;6.88;2.38;;;;;;;;;;6045371;23;20196;-63
2023/05/17 01:01:53;;;;;;;2.65;2.10;;;;;;;;;;6043880;23;20220;-64
2023/05/17 01:04:21;;;;;;;7.15;2.55;;;;;;;;;;6044456;23;20243;-63
2023/05/17 01:06:49;;;;;;;6.63;2.30;;;;;;;;;;6044356;23;20219;-62
2023/05/17 01:09:18;;;;;;;6.15;2.67;;;;;;;;;;6045060;23;20247;-64
2023/05/17 01:11:55;;;;;;;8.43;2.80;;;;;;;;;;6044018;23;20276;-63
2023/05/17 01:14:34;;;;;;;4.13;2.20;;;;;;;;;;6044393;23;20217;-65
2023/05/17 01:17:03;;;;;;;6.95;2.30;;;;;;;;;;6043847;23;20271;-62
2023/05/17 01:19:41;;;;;;;3.38;2.20;;;;;;;;;;6045666;23;20228;-62
2023/05/17 01:22:14;;;;;;;7.38;2.80;;;;;;;;;;6042892;23;20224;-63
2023/05/17 01:24:46;;;;;;;3.33;2.38;;;;;;;;;;6044634;23;20200;-62
2023/05/17 01:27:16;;;;;;;5.32;2.40;;;;;;;;;;6044461;23;20193;-63
2023/05/17 01:29:45;;;;;;;4.65;3.22;;;;;;;;;;6043493;23;20196;-63
2023/05/17 01:32:14;;;;;;;3.50;2.35;;;;;;;;;;6044830;23;20254;-62
2023/05/17 01:34:42;;;;;;;3.65;2.58;;;;;;;;;;6045242;23;20208;-63
2023/05/17 01:37:10;;;;;;;7.82;3.10;;;;;;;;;;6045451;23;20557;-63
2023/05/17 01:39:39;;;;;;;4.00;2.58;;;;;;;;;;6045123;23;20208;-63
2023/05/17 01:42:10;;;;;;;3.95;2.45;;;;;;;;;;6045092;23;20244;-63
2023/05/17 01:44:46;;;;;;;4.90;2.95;;;;;;;;;;6044601;23;20197;-63
2023/05/17 01:47:17;;;;;;;2.97;2.47;;;;;;;;;;6045463;23;20629;-63
2023/05/17 01:49:47;;;;;;;5.30;2.40;;;;;;;;;;6045118;23;20592;-64
2023/05/17 01:52:19;;;;;;;7.55;3.80;;;;;;;;;;6043752;23;20199;-62
2023/05/17 01:54:51;;;;;;;7.68;2.63;;;;;;;;;;6043805;23;20216;-63
2023/05/17 01:57:21;;;;;;;4.10;2.53;;;;;;;;;;6044702;23;20240;-63
2023/05/17 01:59:52;;;;;;;4.30;2.50;;;;;;;;;;6043491;23;20232;-64
2023/05/17 02:02:21;;;;;;;5.15;3.47;;;;;;;;;;6043946;23;20204;-62
2023/05/17 02:04:50;;;;;;;8.77;2.90;;;;;;;;;;6044135;23;20217;-63
2023/05/17 02:07:18;;;;;;;2.53;2.33;;;;;;;;;;6045531;23;20208;-62
2023/05/17 02:09:46;;;;;;;3.35;2.63;;;;;;;;;;6042605;23;20228;-63
2023/05/17 02:12:15;;;;;;;9.32;2.78;;;;;;;;;;6044515;23;20271;-62
2023/05/17 02:14:43;;;;;;;4.57;3.15;;;;;;;;;;6043199;23;20759;-63
2023/05/17 02:17:13;;;;;;;4.10;2.65;;;;;;;;;;6043351;23;20224;-62
2023/05/17 02:19:41;;;;;;;5.05;4.20;;;;;;;;;;6042323;23;20283;-62
2023/05/17 02:22:09;;;;;;;5.82;2.97;;;;;;;;;;6044370;23;20247;-63
2023/05/17 02:24:38;;;;;;;6.53;3.28;;;;;;;;;;6043532;23;20209;-63
2023/05/17 02:27:06;;;;;;;4.43;2.40;;;;;;;;;;6042022;23;20338;-64
2023/05/17 02:29:34;;;;;;;3.53;2.75;;;;;;;;;;6044197;23;20200;-63
2023/05/17 02:32:03;;;;;;;2.90;2.30;;;;;;;;;;6043594;23;20582;-62
2023/05/17 02:34:33;;;;;;;3.10;2.80;;;;;;;;;;6045553;23;20206;-63
2023/05/17 02:37:01;;;;;;;3.10;2.40;;;;;;;;;;6043638;23;20264;-62
2023/05/17 02:39:29;;;;;;;4.63;2.85;;;;;;;;;;6045110;23;20216;-62
2023/05/17 02:41:58;;;;;;;3.95;2.92;;;;;;;;;;6045320;23;20204;-62
2023/05/17 02:44:26;;;;;;;9.15;2.55;;;;;;;;;;6045060;23;20227;-62
2023/05/17 02:46:54;;;;;;;10.27;3.15;;;;;;;;;;6045413;23;20220;-63
2023/05/17 02:49:23;;;;;;;7.75;3.67;;;;;;;;;;6043837;23;20229;-62
2023/05/17 02:51:52;;;;;;;9.10;3.53;;;;;;;;;;6044765;23;20272;-62
2023/05/17 02:54:21;;;;;;;9.50;3.30;;;;;;;;;;6043365;23;20208;-62
2023/05/17 02:56:49;;;;;;;6.78;2.58;;;;;;;;;;6043307;23;20216;-62
2023/05/17 02:59:18;;;;;;;9.70;2.88;;;;;;;;;;6043240;23;20211;-62
2023/05/17 03:01:48;;;;;;;4.50;3.38;;;;;;;;;;6043101;23;20243;-62
2023/05/17 03:04:19;;;;;;;5.20;2.72;;;;;;;;;;6041495;23;20253;-62
2023/05/17 03:06:47;;;;;;;7.35;2.88;;;;;;;;;;6045058;23;20188;-63
2023/05/17 03:09:16;;;;;;;4.82;3.92;;;;;;;;;;6041955;23;20224;-61
2023/05/17 03:11:46;;;;;;;11.48;3.30;;;;;;;;;;6043296;23;20260;-62
2023/05/17 03:14:20;;;;;;;7.68;3.15;;;;;;;;;;6042703;23;20203;-60
2023/05/17 03:16:48;;;;;;;5.57;3.78;;;;;;;;;;6044654;23;20310;-60
2023/05/17 03:19:16;;;;;;;7.22;3.75;;;;;;;;;;6041717;23;20251;-60
2023/05/17 03:21:45;;;;;;;5.57;3.08;;;;;;;;;;6042703;23;20188;-63
2023/05/17 03:24:14;;;;;;;5.15;3.30;;;;;;;;;;6042842;23;20223;-62
2023/05/17 03:26:45;;;;;;;7.22;3.05;;;;;;;;;;6043590;23;20224;-61
2023/05/17 03:29:14;;;;;;;4.72;3.42;;;;;;;;;;6042566;23;20197;-60
2023/05/17 03:31:44;;;;;;;4.70;3.88;;;;;;;;;;6043787;23;20669;-64
2023/05/17 03:34:14;;;;;;;9.00;3.92;;;;;;;;;;6044620;23;20208;-60
2023/05/17 03:36:42;;;;;;;6.10;3.60;;;;;;;;;;6043062;23;20215;-62
2023/05/17 03:39:11;;;;;;;4.07;3.10;;;;;;;;;;6043152;23;20212;-61
2023/05/17 03:41:41;;;;;;;7.60;3.90;;;;;;;;;;6044554;23;20252;-62
2023/05/17 03:44:13;;;;;;;9.18;4.03;;;;;;;;;;6042993;23;20251;-62
2023/05/17 03:46:41;;;;;;;5.70;3.70;;;;;;;;;;6044791;23;20193;-61
2023/05/17 03:49:10;;;;;;;3.80;3.35;;;;;;;;;;6042332;23;20260;-62
2023/05/17 03:51:39;;;;;;;8.95;3.40;;;;;;;;;;6042592;23;20272;-62
2023/05/17 03:54:07;;;;;;;8.68;3.42;;;;;;;;;;6043895;23;20878;-62
2023/05/17 03:56:35;;;;;;;5.10;3.65;;;;;;;;;;6044373;23;20232;-65
2023/05/17 03:59:04;;;;;;;4.80;3.38;;;;;;;;;;6044817;23;20223;-62
2023/05/17 04:01:34;;;;;;;5.00;4.15;;;;;;;;;;6041994;23;20219;-62
2023/05/17 04:04:03;;;;;;;5.45;3.10;;;;;;;;;;6042955;23;20204;-62
2023/05/17 04:06:32;;;;;;;6.78;3.45;;;;;;;;;;6042441;23;20204;-61
2023/05/17 04:09:00;;;;;;;5.10;3.30;;;;;;;;;;6044659;23;20229;-62
2023/05/17 04:11:31;;;;;;;4.15;3.30;;;;;;;;;;6043024;23;20275;-62
2023/05/17 04:14:00;;;;;;;3.90;3.13;;;;;;;;;;6043316;23;20261;-62
2023/05/17 04:16:28;;;;;;;5.18;3.03;;;;;;;;;;6042501;23;20263;-62
2023/05/17 04:18:58;;;;;;;4.68;3.60;;;;;;;;;;6043115;23;20266;-61
2023/05/17 04:21:30;;;;;;;7.00;3.50;;;;;;;;;;6042648;23;20284;-62
2023/05/17 04:23:58;;;;;;;5.82;3.42;;;;;;;;;;6044764;23;20271;-62
2023/05/17 04:26:27;;;;;;;11.18;3.83;;;;;;;;;;6042903;23;20272;-62
2023/05/17 04:28:55;;;;;;;10.00;3.33;;;;;;;;;;6043451;23;20307;-62
2023/05/17 04:31:24;;;;;;;5.07;4.03;;;;;;;;;;6044757;23;20717;-62
2023/05/17 04:33:52;;;;;;;10.80;4.25;;;;;;;;;;6044751;23;20617;-61
2023/05/17 04:36:22;;;;;;;7.95;3.78;;;;;;;;;;6045152;23;20208;-61
2023/05/17 04:38:51;;;;;;;4.82;3.33;;;;;;;;;;6045208;23;20199;-61
2023/05/17 04:41:24;;;;;;;6.55;3.45;;;;;;;;;;6044621;23;20201;-61
2023/05/17 04:43:52;;;;;;;8.23;4.18;;;;;;;;;;6044397;23;20580;-61
2023/05/17 04:46:27;;;;;;;9.48;4.22;;;;;;;;;;6044412;23;20268;-62
2023/05/17 04:48:56;;;;;;;6.88;3.58;;;;;;;;;;6044609;23;20212;-62
2023/05/17 04:51:26;;;;;;;9.68;3.58;;;;;;;;;;6044490;23;20255;-62
2023/05/17 04:53:55;;;;;;;7.93;3.67;;;;;;;;;;6046330;23;20665;-62
2023/05/17 04:56:23;;;;;;;8.73;3.50;;;;;;;;;;6043893;23;20203;-61
2023/05/17 04:58:52;;;;;;;13.82;3.97;;;;;;;;;;6044173;23;20228;-62
2023/05/17 05:01:21;;;;;;;7.63;3.42;;;;;;;;;;6043669;23;20212;-62
2023/05/17 05:03:49;;;;;;;6.13;3.63;;;;;;;;;;6043973;23;20603;-62
2023/05/17 05:06:18;;;;;;;6.15;3.70;;;;;;;;;;6043207;23;20248;-61
2023/05/17 05:08:48;;;;;;;5.50;3.22;;;;;;;;;;6046054;23;20212;-62
2023/05/17 05:11:16;;;;;;;6.78;2.95;;;;;;;;;;6044146;23;20591;-61
2023/05/17 05:13:45;;;;;;;8.52;3.22;;;;;;;;;;6045411;23;20238;-62
2023/05/17 05:16:14;;;;;;;5.72;3.28;;;;;;;;;;6042118;23;20317;-62
2023/05/17 05:18:44;;;;;;;5.95;3.00;;;;;;;;;;6043161;23;20250;-61
2023/05/17 05:21:12;;;;;;;6.32;3.15;;;;;;;;;;6043462;23;20283;-62
2023/05/17 05:23:40;;;;;;;4.53;3.42;;;;;;;;;;6044952;23;20211;-62
2023/05/17 05:26:10;;;;;;;3.75;3.25;;;;;;;;;;6042176;23;20220;-62
2023/05/17 05:28:39;;;;;;;6.72;3.30;;;;;;;;;;6043788;23;20193;-63
2023/05/17 05:31:08;;;;;;;7.00;3.75;;;;;;;;;;6043140;23;20249;-64
2023/05/17 05:33:43;;;;;;;3.78;3.38;;;;;;;;;;6042083;23;20321;-63
2023/05/17 05:36:11;;;;;;;7.32;3.90;;;;;;;;;;6041548;23;20255;-62
2023/05/17 05:38:40;;;;;;;7.10;3.65;;;;;;;;;;6043802;23;20693;-61
2023/05/17 05:41:08;;;;;;;6.80;3.55;;;;;;;;;;6043643;23;20641;-62
2023/05/17 05:43:39;;;;;;;7.63;3.05;;;;;;;;;;6043768;23;20200;-63
2023/05/17 05:46:08;;;;;;;7.30;3.60;;;;;;;;;;6043802;23;20743;-64
2023/05/17 05:48:38;;;;;;;5.05;3.35;;;;;;;;;;6046567;23;20208;-68
2023/05/17 05:51:06;;;;;;;7.55;3.03;;;;;;;;;;6048170;23;20260;-67
2023/05/17 05:53:34;;;;;;;7.22;3.70;;;;;;;;;;6045896;23;20771;-67
2023/05/17 05:56:03;;;;;;;6.13;3.70;;;;;;;;;;6047850;23;20652;-67
2023/05/17 05:58:32;;;;;;;4.28;3.33;;;;;;;;;;6057808;23;20185;-67
2023/05/17 06:01:03;;;;;;;3.30;3.00;;;;;;;;;;6063047;23;20145;-66
2023/05/17 06:03:31;;;;;;;6.90;3.80;;;;;;;;;;6064715;23;20173;-66
2023/05/17 06:06:00;;;;;;;4.45;3.70;;;;;;;;;;6064547;23;20177;-66
2023/05/17 06:08:28;;;;;;;4.75;3.45;;;;;;;;;;6047837;23;20551;-68
2023/05/17 06:10:56;;;;;;;8.65;4.18;;;;;;;;;;6037946;23;20752;-68
2023/05/17 06:13:25;;;;;;;4.75;3.40;;;;;;;;;;6039046;23;20264;-68
2023/05/17 06:15:53;;;;;;;3.50;2.72;;;;;;;;;;6041353;23;20228;-68
2023/05/17 06:18:23;;;;;;;5.72;3.53;;;;;;;;;;6044319;23;20256;-68
2023/05/17 06:20:51;;;;;;;4.22;2.95;;;;;;;;;;6042335;23;20283;-67
2023/05/17 06:23:19;;;;;;;6.93;4.00;;;;;;;;;;6043538;23;20201;-66
2023/05/17 06:25:47;;;;;;;5.18;3.50;;;;;;;;;;6045962;23;20208;-67
2023/05/17 06:28:16;;;;;;;5.78;3.28;;;;;;;;;;6049353;23;20222;-67
2023/05/17 06:30:44;;;;;;;5.68;3.10;;;;;;;;;;6045415;23;20204;-67
2023/05/17 06:33:12;;;;;;;4.35;3.17;;;;;;;;;;6046622;23;20595;-67
2023/05/17 06:35:42;;;;;;;5.18;3.30;;;;;;;;;;6047793;23;20286;-66
2023/05/17 06:38:10;;;;;;;15.75;4.30;;;;;;;;;;6044054;23;20260;-67
2023/05/17 06:40:38;;;;;;;4.93;3.08;;;;;;;;;;6042511;23;20255;-66
2023/05/17 06:43:07;;;;;;;10.13;3.75;;;;;;;;;;6045396;23;20177;-67
2023/05/17 06:45:35;;;;;;;4.80;3.47;;;;;;;;;;6057348;23;20185;-65
2023/05/17 06:48:03;;;;;;;4.85;3.30;;;;;;;;;;6053252;23;20181;-66
2023/05/17 06:50:31;;;;;;;6.50;3.47;;;;;;;;;;6056128;23;20181;-66
2023/05/17 06:53:01;;;;;;;4.78;3.95;;;;;;;;;;6049662;23;20252;-67
2023/05/17 06:55:29;;;;;;;6.07;3.75;;;;;;;;;;6050803;23;20208;-66
2023/05/17 06:57:58;;;;;;;5.05;3.80;;;;;;;;;;6058501;23;20209;-67
2023/05/17 07:00:27;;;;;;;8.20;4.38;;;;;;;;;;6046483;23;20216;-67
2023/05/17 07:02:55;;;;;;;9.77;4.15;;;;;;;;;;6038169;23;20256;-67
2023/05/17 07:05:23;;;;;;;7.18;4.22;;;;;;;;;;6038178;23;20305;-67
2023/05/17 07:07:52;;;;;;;12.02;4.28;;;;;;;;;;6038325;23;20259;-67
2023/05/17 07:10:21;;;;;;;5.20;4.32;;;;;;;;;;6038154;23;20271;-68
2023/05/17 07:12:49;;;;;;;4.50;3.78;;;;;;;;;;6043250;23;20271;-67
2023/05/17 07:15:18;;;;;;;6.30;4.90;;;;;;;;;;6043866;23;20227;-67
2023/05/17 07:17:46;;;;;;;8.07;4.40;;;;;;;;;;6049728;23;20208;-67
2023/05/17 07:20:15;;;;;;;10.88;4.30;;;;;;;;;;6046298;23;20240;-68
2023/05/17 07:22:43;;;;;;;7.57;4.55;;;;;;;;;;6040479;23;20224;-67
2023/05/17 07:25:11;;;;;;;7.13;4.53;;;;;;;;;;6040131;23;20331;-68
2023/05/17 07:27:41;;;;;;;9.10;4.93;;;;;;;;;;6040277;23;20256;-67
2023/05/17 07:30:10;;;;;;;6.55;4.32;;;;;;;;;;6039224;23;20259;-67
2023/05/17 07:32:38;;;;;;;7.95;4.97;;;;;;;;;;6040182;23;20268;-67
2023/05/17 07:35:07;;;;;;;8.10;4.38;;;;;;;;;;6049178;23;20215;-67
2023/05/17 07:37:35;;;;;;;14.23;4.68;;;;;;;;;;6047906;23;20208;-67
2023/05/17 07:40:04;;;;;;;5.05;4.65;;;;;;;;;;6055418;23;20185;-67
2023/05/17 07:42:33;;;;;;;11.75;4.80;;;;;;;;;;6057454;23;20180;-67
2023/05/17 07:45:02;;;;;;;12.38;4.38;;;;;;;;;;6059391;23;20180;-67
2023/05/17 07:47:31;;;;;;;7.65;4.82;;;;;;;;;;6057796;23;20271;-68
2023/05/17 07:50:00;;;;;;;5.65;4.57;;;;;;;;;;6057402;23;20184;-67
2023/05/17 07:52:28;;;;;;;8.45;4.60;;;;;;;;;;6061717;23;20169;-66
2023/05/17 07:54:56;;;;;;;7.07;5.03;;;;;;;;;;6062996;23;20268;-67
2023/05/17 07:57:26;;;;;;;5.47;4.47;;;;;;;;;;6064119;23;20237;-67
2023/05/17 07:59:54;;;;;;;6.95;5.10;;;;;;;;;;6064543;23;20173;-65
2023/05/17 08:02:23;;;;;;;8.90;4.95;;;;;;;;;;6061761;23;20173;-66
2023/05/17 08:04:52;;;;;;;6.60;5.10;;;;;;;;;;6060461;23;20536;-66
2023/05/17 08:07:20;;;;;;;7.07;5.17;;;;;;;;;;6055073;23;20551;-67
2023/05/17 08:09:48;;;;;;;9.73;6.03;;;;;;;;;;6051149;23;20728;-66
2023/05/17 08:12:16;;;;;;;9.00;5.50;;;;;;;;;;6050424;23;20216;-67
2023/05/17 08:14:45;;;;;;;10.17;5.40;;;;;;;;;;6052867;23;20623;-66
2023/05/17 08:17:13;;;;;;;7.37;5.67;;;;;;;;;;6065778;23;20601;-65
2023/05/17 08:19:42;;;;;;;5.40;4.90;;;;;;;;;;6066185;23;20601;-65
2023/05/17 08:22:11;;;;;;;9.80;6.00;;;;;;;;;;6064627;23;20517;-65
2023/05/17 08:24:39;;;;;;;5.93;4.90;;;;;;;;;;6063530;23;20577;-66
2023/05/17 08:27:07;;;;;;;6.10;5.50;;;;;;;;;;6065011;23;20561;-65
2023/05/17 08:29:36;;;;;;;10.07;5.40;;;;;;;;;;6065843;23;20569;-65
2023/05/17 08:32:05;;;;;;;9.00;5.47;;;;;;;;;;6047357;23;21088;-67
2023/05/17 08:34:33;;;;;;;6.43;5.40;;;;;;;;;;6039706;23;21089;-68
2023/05/17 08:37:03;;;;;;;7.07;4.90;;;;;;;;;;6058227;23;20575;-66
2023/05/17 08:39:31;;;;;;;5.60;5.10;;;;;;;;;;6062333;23;20559;-66
2023/05/17 08:42:00;;;;;;;7.50;5.63;;;;;;;;;;6065481;23;20540;-66
2023/05/17 08:44:28;;;;;;;7.87;5.30;;;;;;;;;;6065630;23;20570;-66
2023/05/17 08:46:58;;;;;;;6.17;5.57;;;;;;;;;;6065653;23;20610;-66
2023/05/17 08:49:27;;;;;;;10.13;6.70;;;;;;;;;;6065477;23;20559;-67
2023/05/17 08:51:58;;;;;;;6.97;5.30;;;;;;;;;;6062127;23;20588;-67
2023/05/17 08:54:27;;;;;;;14.90;7.23;;;;;;;;;;6064478;23;20637;-65
2023/05/17 08:56:59;;;;;;;7.13;5.30;;;;;;;;;;6064417;23;20577;-65
2023/05/17 08:59:32;;;;;;;5.53;4.93;;;;;;;;;;6058425;23;20528;-65
2023/05/17 09:02:01;;;;;;;6.97;5.10;;;;;;;;;;6050717;23;20544;-65
2023/05/17 09:04:30;;;;;;;5.67;5.17;;;;;;;;;;6030548;23;20548;-65
2023/05/17 09:06:58;;;;;;;8.80;6.23;;;;;;;;;;6051235;23;20575;-66
2023/05/17 09:09:28;;;;;;;6.00;5.40;;;;;;;;;;6051448;23;20660;-67
2023/05/17 09:11:58;;;;;;;5.83;5.23;;;;;;;;;;6051207;23;20566;-66
2023/05/17 09:14:33;;;;;;;6.77;5.53;;;;;;;;;;6062954;23;20609;-65
2023/05/17 09:17:01;;;;;;;7.00;4.73;;;;;;;;;;6059255;23;20552;-66
2023/05/17 09:19:31;;;;;;;6.20;5.60;;;;;;;;;;6043209;23;20761;-67
2023/05/17 09:22:01;;;;;;;7.53;5.83;;;;;;;;;;6058978;23;20534;-66
2023/05/17 09:24:31;;;;;;;7.00;5.80;;;;;;;;;;6063418;23;20621;-65
2023/05/17 09:27:03;;;;;;;9.33;6.00;;;;;;;;;;6065120;23;20603;-65
2023/05/17 09:29:32;;;;;;;11.00;7.07;;;;;;;;;;6063331;23;20601;-65
2023/05/17 09:32:12;;;;;;;6.60;5.47;;;;;;;;;;6060614;23;20559;-66
2023/05/17 09:34:41;;;;;;;6.20;5.70;;;;;;;;;;6059993;23;20593;-66
2023/05/17 09:37:16;;;;;;;8.10;6.30;;;;;;;;;;6048077;23;20571;-67
2023/05/17 09:39:46;;;;;;;6.80;6.10;;;;;;;;;;6051463;23;20576;-66
2023/05/17 09:42:15;;;;;;;7.50;5.60;;;;;;;;;;6057725;23;20561;-68
2023/05/17 09:44:47;;;;;;;6.03;5.53;;;;;;;;;;6045622;23;20652;-67
2023/05/17 09:47:28;;;;;;;6.97;5.90;;;;;;;;;;6042763;23;20548;-66
2023/05/17 09:49:57;;;;;;;8.27;6.20;;;;;;;;;;6041382;23;20648;-67
2023/05/17 09:52:25;;;;;;;6.17;5.57;;;;;;;;;;6042719;23;20693;-66
2023/05/17 09:54:56;;;;;;;5.97;5.40;;;;;;;;;;6041389;23;21010;-66
2023/05/17 09:57:26;;;;;;;7.60;6.77;;;;;;;;;;6042251;23;20941;-66
2023/05/17 09:59:56;;;;;;;8.67;6.37;;;;;;;;;;6041428;23;20648;-66
2023/05/17 10:02:28;;;;;;;7.10;6.20;;;;;;;;;;6039974;23;20679;-64
2023/05/17 10:04:57;;;;;;;6.23;5.73;;;;;;;;;;6038703;23;20616;-66
2023/05/17 10:07:26;;;;;;;5.97;5.50;;;;;;;;;;6039400;23;20660;-65
2023/05/17 10:09:56;;;;;;;7.43;6.70;;;;;;;;;;6040565;23;20666;-65
2023/05/17 10:12:26;;;;;;;7.30;6.60;;;;;;;;;;6040388;23;21170;-65
2023/05/17 10:14:55;;;;;;;8.27;6.50;;;;;;;;;;6039857;23;21000;-65
2023/05/17 10:17:25;;;;;;;10.53;6.20;;;;;;;;;;6040662;23;20628;-66
2023/05/17 10:19:54;;;;;;;8.17;5.77;;;;;;;;;;6042468;23;20689;-66
2023/05/17 10:22:23;;;;;;;5.87;5.37;;;;;;;;;;6044158;23;20604;-66
2023/05/17 10:24:51;;;;;;;5.73;5.30;;;;;;;;;;6042390;23;20660;-66
2023/05/17 10:27:21;;;;;;;8.47;6.03;;;;;;;;;;6041503;23;20664;-66
2023/05/17 10:29:50;;;;;;;7.40;5.83;;;;;;;;;;6042992;23;20966;-66
2023/05/17 10:32:21;;;;;;;6.17;5.57;;;;;;;;;;6041820;23;20671;-66
2023/05/17 10:34:51;;;;;;;6.07;5.57;;;;;;;;;;6041516;23;21200;-66
2023/05/17 10:37:20;;;;;;;7.30;5.90;;;;;;;;;;6042797;23;20669;-66
2023/05/17 10:39:50;;;;;;;7.10;5.30;;;;;;;;;;6043971;23;20647;-66
2023/05/17 10:42:19;;;;;;;7.77;6.30;;;;;;;;;;6041602;23;20608;-66
2023/05/17 10:44:50;;;;;;;7.00;5.40;;;;;;;;;;6042988;23;21280;-66
2023/05/17 10:47:18;;;;;;;6.43;5.70;;;;;;;;;;6041958;23;20973;-66
2023/05/17 10:49:50;;;;;;;6.17;5.57;;;;;;;;;;6043209;23;20700;-66
2023/05/17 10:52:22;;;;;;;6.10;5.70;;;;;;;;;;6041348;23;20614;-66
2023/05/17 10:54:50;;;;;;;7.20;6.30;;;;;;;;;;6040859;23;20795;-66
2023/05/17 10:57:23;;;;;;;6.80;5.60;;;;;;;;;;6041742;23;20964;-66
2023/05/17 10:59:59;;;;;;;6.00;5.60;;;;;;;;;;6042539;23;20697;-66
2023/05/17 11:02:28;;;;;;;6.40;5.90;;;;;;;;;;6042301;23;20633;-65
2023/05/17 11:04:56;;;;;;;7.20;6.17;;;;;;;;;;6041473;23;20665;-66
2023/05/17 11:07:30;;;;;;;8.93;5.80;;;;;;;;;;6039399;23;20675;-66
2023/05/17 11:10:06;;;;;;;5.93;5.33;;;;;;;;;;6040574;23;20681;-66
2023/05/17 11:12:35;;;;;;;6.53;5.90;;;;;;;;;;6040070;23;20633;-65
2023/05/17 11:15:09;;;;;;;6.83;6.30;;;;;;;;;;6040209;23;20780;-65
2023/05/17 11:17:48;;;;;;;6.33;5.83;;;;;;;;;;6040704;23;20595;-65
2023/05/17 11:20:36;;;;;;;6.00;5.60;;;;;;;;;;6039189;23;20715;-66
2023/05/17 11:23:05;;;;;;;6.60;5.90;;;;;;;;;;6040206;23;20561;-65
2023/05/17 11:25:35;;;;;;;6.13;5.63;;;;;;;;;;6040272;23;20672;-65
2023/05/17 11:28:08;;;;;;;7.03;6.47;;;;;;;;;;6040211;23;20524;-66
2023/05/17 11:30:50;;;;;;;6.57;6.00;;;;;;;;;;6038677;23;20658;-65
2023/05/17 11:33:20;;;;;;;6.40;5.87;;;;;;;;;;6037705;23;20644;-66
2023/05/17 11:35:48;;;;;;;6.03;5.63;;;;;;;;;;6039860;23;20737;-65
2023/05/17 11:38:17;;;;;;;9.03;6.17;;;;;;;;;;6015767;23;20752;-67
2023/05/17 11:40:46;;;;;;;7.53;6.40;;;;;;;;;;6041224;23;21036;-66
2023/05/17 11:43:15;;;;;;;7.30;6.30;;;;;;;;;;6041801;23;20681;-67
2023/05/17 11:45:47;;;;;;;15.83;7.03;;;;;;;;;;6041682;23;20700;-67
2023/05/17 11:48:16;;;;;;;8.50;6.97;;;;;;;;;;6041514;23;20616;-66
2023/05/17 11:50:45;;;;;;;7.87;7.27;;;;;;;;;;6041444;23;20690;-66
2023/05/17 11:53:13;;;;;;;8.20;7.50;;;;;;;;;;6041496;23;20672;-66
2023/05/17 11:55:42;;;;;;;7.67;7.07;;;;;;;;;;6041899;23;20688;-66
2023/05/17 11:58:12;;;;;;;7.53;6.90;;;;;;;;;;6039567;23;21177;-64
2023/05/17 12:00:41;;;;;;;7.83;7.13;;;;;;;;;;6041083;23;21164;-66
2023/05/17 12:03:18;;;;;;;9.73;7.70;;;;;;;;;;6040457;23;20668;-65
2023/05/17 12:05:47;;;;;;;8.50;7.80;;;;;;;;;;6041212;23;20613;-66
2023/05/17 12:08:16;;;;;;;7.37;6.87;;;;;;;;;;6041485;23;20643;-67
2023/05/17 12:10:48;;;;;;;8.67;6.90;;;;;;;;;;6041069;23;20633;-66
2023/05/17 12:13:16;;;;;;;9.47;7.00;;;;;;;;;;6042317;23;20565;-67
2023/05/17 12:15:45;;;;;;;7.30;6.83;;;;;;;;;;6041696;23;20686;-66
2023/05/17 12:18:14;;;;;;;7.53;6.73;;;;;;;;;;6040645;23;20679;-66
2023/05/17 12:20:55;;;;;;;8.87;8.07;;;;;;;;;;6041779;23;20677;-66
2023/05/17 12:23:27;;;;;;;8.53;7.77;;;;;;;;;;6042214;23;20611;-66
2023/05/17 12:26:05;;;;;;;8.60;7.93;;;;;;;;;;6041824;23;20652;-66
2023/05/17 12:28:33;;;;;;;10.70;8.07;;;;;;;;;;6041971;23;20540;-66
2023/05/17 12:31:02;;;;;;;8.43;7.83;;;;;;;;;;6042178;23;21226;-67
2023/05/17 12:33:32;;;;;;;8.33;7.63;;;;;;;;;;6041799;23;20644;-66
2023/05/17 12:36:02;;;;;;;8.40;7.27;;;;;;;;;;6040452;23;20664;-66
2023/05/17 12:38:32;;;;;;;8.63;7.80;;;;;;;;;;6040482;23;20977;-67
2023/05/17 12:41:03;;;;;;;8.53;7.80;;;;;;;;;;6039088;23;20672;-66
2023/05/17 12:43:33;;;;;;;8.73;8.03;;;;;;;;;;6039857;23;20649;-66
2023/05/17 12:46:10;;;;;;;8.20;7.50;;;;;;;;;;6039335;23;20659;-67
2023/05/17 12:48:39;;;;;;;8.10;7.50;;;;;;;;;;6039685;23;20688;-66
2023/05/17 12:51:09;;;;;;;9.87;8.00;;;;;;;;;;6040699;23;20660;-66
2023/05/17 12:53:38;;;;;;;8.47;7.93;;;;;;;;;;6042828;23;20546;-66
2023/05/17 12:56:07;;;;;;;10.00;8.37;;;;;;;;;;6042974;23;20772;-66
2023/05/17 12:58:35;;;;;;;9.40;8.43;;;;;;;;;;6042549;23;21173;-66
2023/05/17 13:01:07;;;;;;;8.73;8.03;;;;;;;;;;6041581;23;20676;-66
2023/05/17 13:03:35;;;;;;;7.93;7.40;;;;;;;;;;6041858;23;20633;-66
2023/05/17 13:06:04;;;;;;;8.97;8.27;;;;;;;;;;6017011;23;20908;-66
2023/05/17 13:08:34;;;;;;;7.70;7.10;;;;;;;;;;6043327;23;20661;-65
2023/05/17 13:11:06;;;;;;;7.60;7.10;;;;;;;;;;6040785;23;20668;-67
2023/05/17 13:13:35;;;;;;;8.00;7.40;;;;;;;;;;6042176;23;20672;-64
2023/05/17 13:16:03;;;;;;;9.13;8.17;;;;;;;;;;6039770;23;20700;-65
2023/05/17 13:18:34;;;;;;;7.73;7.13;;;;;;;;;;6042394;23;21202;-67
2023/05/17 13:21:02;;;;;;;8.23;7.43;;;;;;;;;;6042432;23;21212;-66
2023/05/17 13:23:31;;;;;;;8.27;7.57;;;;;;;;;;6041872;23;20644;-65
2023/05/17 13:26:00;;;;;;;7.77;7.17;;;;;;;;;;6041808;23;20696;-64
2023/05/17 13:28:29;;;;;;;7.93;7.37;;;;;;;;;;6042209;23;20872;-65
2023/05/17 13:30:57;;;;;;;10.07;8.80;;;;;;;;;;6040144;23;20672;-65
2023/05/17 13:33:26;;;;;;;8.97;7.47;;;;;;;;;;6041321;23;20695;-65
2023/05/17 13:35:54;;;;;;;9.70;7.77;;;;;;;;;;6041094;23;20715;-65
2023/05/17 13:38:23;;;;;;;7.70;7.20;;;;;;;;;;6041699;23;20656;-65
2023/05/17 13:40:51;;;;;;;8.77;6.93;;;;;;;;;;6041355;23;20660;-65
2023/05/17 13:43:21;;;;;;;8.67;7.77;;;;;;;;;;6041590;23;20644;-65
2023/05/17 13:45:53;;;;;;;8.70;7.87;;;;;;;;;;6041232;23;20669;-66
2023/05/17 13:48:21;;;;;;;8.50;7.80;;;;;;;;;;6041857;23;20699;-65
2023/05/17 13:50:50;;;;;;;9.17;8.47;;;;;;;;;;6039471;23;20732;-66
2023/05/17 13:53:18;;;;;;;8.87;8.03;;;;;;;;;;6040104;23;20648;-66
2023/05/17 13:55:46;;;;;;;7.50;6.93;;;;;;;;;;6040347;23;20707;-66
2023/05/17 13:58:16;;;;;;;9.90;7.30;;;;;;;;;;6039491;23;20672;-66
2023/05/17 14:00:46;;;;;;;8.43;7.77;;;;;;;;;;6040425;23;20675;-66
2023/05/17 14:03:14;;;;;;;11.97;8.00;;;;;;;;;;6038019;23;21018;-66
2023/05/17 14:05:43;;;;;;;7.80;7.20;;;;;;;;;;6039198;23;20681;-66
2023/05/17 14:08:11;;;;;;;10.87;8.13;;;;;;;;;;6039802;23;20705;-66
2023/05/17 14:10:39;;;;;;;7.67;6.97;;;;;;;;;;6038957;23;20688;-66
2023/05/17 14:13:10;;;;;;;8.30;7.50;;;;;;;;;;6039134;23;20729;-66
2023/05/17 14:15:39;;;;;;;7.90;7.30;;;;;;;;;;6039978;23;20553;-66
2023/05/17 14:18:10;;;;;;;7.10;6.60;;;;;;;;;;6039127;23;20718;-66
2023/05/17 14:20:38;;;;;;;10.37;8.17;;;;;;;;;;6038770;23;20680;-66
2023/05/17 14:23:06;;;;;;;8.67;7.80;;;;;;;;;;6038903;23;20656;-65
2023/05/17 14:25:34;;;;;;;8.17;7.57;;;;;;;;;;6039863;23;20674;-66
2023/05/17 14:28:03;;;;;;;14.20;8.40;;;;;;;;;;6040294;23;20724;-66
2023/05/17 14:30:31;;;;;;;7.80;7.20;;;;;;;;;;6038734;23;20965;-66
2023/05/17 14:32:59;;;;;;;10.20;8.53;;;;;;;;;;6039871;23;20653;-66
2023/05/17 14:35:30;;;;;;;8.40;7.80;;;;;;;;;;6038911;23;21040;-66
2023/05/17 14:37:58;;;;;;;9.10;8.33;;;;;;;;;;6039594;23;20652;-66
2023/05/17 14:40:27;;;;;;;8.83;7.93;;;;;;;;;;6038957;23;20668;-66
2023/05/17 14:42:55;;;;;;;9.13;8.27;;;;;;;;;;6040951;23;21165;-66
2023/05/17 14:45:24;;;;;;;8.00;7.20;;;;;;;;;;6038535;23;21201;-66
2023/05/17 14:47:52;;;;;;;7.67;7.10;;;;;;;;;;6039826;23;20672;-66
2023/05/17 14:50:20;;;;;;;10.30;7.80;;;;;;;;;;6038636;23;20669;-67
2023/05/17 14:52:50;;;;;;;8.60;7.90;;;;;;;;;;6040823;23;20709;-67
2023/05/17 14:55:18;;;;;;;8.60;7.90;;;;;;;;;;6039276;23;20660;-64
2023/05/17 14:57:46;;;;;;;8.13;7.53;;;;;;;;;;6039852;23;20970;-65